Time;durP1;ratioP1;P1;durP2;ratioP2;P2;SDS_P1;SDS_P2;PMS_P1;PMS_P2;Temp;Humidity;BMP_temperature;BMP_pressure;BME280_temperature;BME280_humidity;BME280_pressure;Samples;Min_cycle;Max_cycle;Signal;HPM_P1;HPM_P2
2023/04/26 00:01:28;;;;;;;12.40;5.78;;;;;;;;;;7342803;19;19998;-80
2023/04/26 00:03:55;;;;;;;15.55;5.97;;;;;;;;;;7366916;19;20009;-80
2023/04/26 00:06:20;;;;;;;12.65;6.28;;;;;;;;;;7349947;19;20014;-78
2023/04/26 00:08:45;;;;;;;10.17;5.30;;;;;;;;;;7370645;19;20009;-76
2023/04/26 00:11:10;;;;;;;12.97;5.70;;;;;;;;;;7369610;19;20899;-77
2023/04/26 00:13:37;;;;;;;12.05;5.60;;;;;;;;;;7370956;19;20223;-76
2023/04/26 00:16:02;;;;;;;12.77;5.68;;;;;;;;;;7364270;19;20003;-79
2023/04/26 00:18:27;;;;;;;15.25;5.90;;;;;;;;;;7356449;19;20161;-77
2023/04/26 00:20:53;;;;;;;11.63;5.40;;;;;;;;;;7365463;19;20436;-75
2023/04/26 00:23:18;;;;;;;12.07;5.45;;;;;;;;;;7366979;19;20007;-80
2023/04/26 00:25:43;;;;;;;14.17;6.63;;;;;;;;;;7367816;19;20003;-78
2023/04/26 00:28:08;;;;;;;13.97;6.07;;;;;;;;;;7370349;19;20360;-80
2023/04/26 00:30:36;;;;;;;14.75;6.25;;;;;;;;;;7368363;19;20351;-79
2023/04/26 00:33:01;;;;;;;12.85;5.97;;;;;;;;;;7362525;19;20243;-78
2023/04/26 00:35:26;;;;;;;13.68;5.70;;;;;;;;;;7361460;19;20003;-79
2023/04/26 00:37:51;;;;;;;11.50;6.13;;;;;;;;;;7369077;19;20256;-76
2023/04/26 00:40:16;;;;;;;13.70;6.15;;;;;;;;;;7368265;19;20063;-80
2023/04/26 00:42:42;;;;;;;15.82;7.53;;;;;;;;;;7365593;19;20044;-76
2023/04/26 00:45:07;;;;;;;13.90;6.70;;;;;;;;;;7362725;19;19995;-81
2023/04/26 00:47:32;;;;;;;16.42;7.68;;;;;;;;;;7357937;19;20629;-81
2023/04/26 00:49:58;;;;;;;19.10;7.32;;;;;;;;;;7361066;19;20023;-78
2023/04/26 00:52:24;;;;;;;14.90;7.22;;;;;;;;;;7369169;19;19995;-80
2023/04/26 00:54:50;;;;;;;15.57;7.10;;;;;;;;;;7353314;19;20028;-80
2023/04/26 00:57:15;;;;;;;16.27;6.93;;;;;;;;;;7368112;19;19994;-80
2023/04/26 00:59:40;;;;;;;15.10;6.68;;;;;;;;;;7338858;19;20034;-80
2023/04/26 01:02:05;;;;;;;14.48;6.80;;;;;;;;;;7323772;19;20417;-81
2023/04/26 01:04:31;;;;;;;13.50;6.18;;;;;;;;;;7264495;19;20912;-81
2023/04/26 01:06:57;;;;;;;15.15;5.93;;;;;;;;;;7262870;19;20015;-81
2023/04/26 01:09:22;;;;;;;13.82;6.15;;;;;;;;;;7258635;19;20399;-79
2023/04/26 01:11:47;;;;;;;12.60;5.95;;;;;;;;;;7265785;19;20003;-80
2023/04/26 01:14:13;;;;;;;14.50;6.25;;;;;;;;;;7266792;19;20007;-80
2023/04/26 01:16:39;;;;;;;12.82;5.63;;;;;;;;;;7262823;19;20006;-80
2023/04/26 01:19:09;;;;;;;16.90;6.30;;;;;;;;;;7272516;19;20479;-80
2023/04/26 01:21:35;;;;;;;15.80;6.75;;;;;;;;;;7279058;19;20009;-78
2023/04/26 01:24:01;;;;;;;14.48;6.60;;;;;;;;;;7276352;19;20247;-78
2023/04/26 01:26:26;;;;;;;14.27;6.75;;;;;;;;;;7274465;19;20564;-79
2023/04/26 01:28:51;;;;;;;12.05;5.78;;;;;;;;;;7273979;19;20028;-77
2023/04/26 01:31:16;;;;;;;11.38;6.28;;;;;;;;;;7272663;19;19999;-78
2023/04/26 01:33:41;;;;;;;15.32;6.38;;;;;;;;;;7275862;19;20260;-78
2023/04/26 01:36:08;;;;;;;12.70;6.03;;;;;;;;;;7264055;19;20744;-81
2023/04/26 01:38:33;;;;;;;13.90;6.63;;;;;;;;;;7277921;19;20331;-81
2023/04/26 01:40:59;;;;;;;12.55;6.25;;;;;;;;;;7274380;19;20365;-81
2023/04/26 01:43:24;;;;;;;14.98;6.20;;;;;;;;;;7274720;19;19999;-79
2023/04/26 01:45:49;;;;;;;11.48;5.70;;;;;;;;;;7272755;19;20035;-79
2023/04/26 01:48:14;;;;;;;13.20;5.97;;;;;;;;;;7270354;19;20509;-78
2023/04/26 01:50:40;;;;;;;13.18;6.47;;;;;;;;;;7264243;19;20003;-78
2023/04/26 01:53:05;;;;;;;13.15;6.15;;;;;;;;;;7266024;19;20384;-76
2023/04/26 01:55:30;;;;;;;14.47;6.50;;;;;;;;;;7269700;19;20003;-79
2023/04/26 01:57:55;;;;;;;15.57;6.50;;;;;;;;;;7269586;19;20268;-79
2023/04/26 02:00:21;;;;;;;12.70;6.13;;;;;;;;;;7270093;19;20002;-79
2023/04/26 02:02:46;;;;;;;12.43;5.95;;;;;;;;;;7272858;19;20030;-79
2023/04/26 02:05:11;;;;;;;11.33;6.57;;;;;;;;;;7268451;19;20412;-80
2023/04/26 02:07:36;;;;;;;17.05;7.43;;;;;;;;;;7276085;19;20697;-78
2023/04/26 02:10:02;;;;;;;12.60;7.07;;;;;;;;;;7273858;19;20560;-79
2023/04/26 02:12:27;;;;;;;16.48;6.57;;;;;;;;;;7266998;19;19995;-79
2023/04/26 02:14:52;;;;;;;12.32;6.93;;;;;;;;;;7272904;19;20066;-79
2023/04/26 02:17:20;;;;;;;11.73;6.50;;;;;;;;;;7265906;19;20022;-79
2023/04/26 02:19:45;;;;;;;15.00;6.93;;;;;;;;;;7271981;19;21028;-79
2023/04/26 02:22:10;;;;;;;14.23;7.28;;;;;;;;;;7267917;19;20370;-79
2023/04/26 02:24:35;;;;;;;15.15;6.82;;;;;;;;;;7272137;19;20361;-79
2023/04/26 02:27:02;;;;;;;14.80;6.38;;;;;;;;;;7277577;19;20645;-79
2023/04/26 02:29:28;;;;;;;19.70;7.28;;;;;;;;;;7271568;19;20090;-79
2023/04/26 02:31:53;;;;;;;14.43;6.43;;;;;;;;;;7278795;19;20506;-79
2023/04/26 02:34:18;;;;;;;11.98;6.47;;;;;;;;;;7271328;19;20037;-79
2023/04/26 02:36:43;;;;;;;13.02;6.60;;;;;;;;;;7276350;19;20006;-78
2023/04/26 02:39:08;;;;;;;13.82;7.05;;;;;;;;;;7272463;19;20922;-79
2023/04/26 02:41:34;;;;;;;14.60;7.28;;;;;;;;;;7273838;19;20770;-79
2023/04/26 02:43:59;;;;;;;12.65;6.95;;;;;;;;;;7274793;19;19999;-79
2023/04/26 02:46:24;;;;;;;23.42;8.80;;;;;;;;;;7265171;19;19994;-78
2023/04/26 02:48:50;;;;;;;21.42;8.63;;;;;;;;;;7276865;19;21048;-78
2023/04/26 02:51:15;;;;;;;15.20;8.15;;;;;;;;;;7271488;19;20468;-77
2023/04/26 02:53:40;;;;;;;20.65;8.32;;;;;;;;;;7274707;19;20341;-78
2023/04/26 02:56:05;;;;;;;15.95;8.02;;;;;;;;;;7274873;19;20739;-77
2023/04/26 02:58:31;;;;;;;17.85;8.45;;;;;;;;;;7267329;19;20025;-78
2023/04/26 03:00:57;;;;;;;14.63;7.80;;;;;;;;;;7337543;19;20010;-77
2023/04/26 03:03:22;;;;;;;19.27;7.05;;;;;;;;;;7371081;19;19998;-78
2023/04/26 03:05:47;;;;;;;13.02;6.97;;;;;;;;;;7365690;19;20009;-76
2023/04/26 03:08:13;;;;;;;12.77;5.57;;;;;;;;;;7367952;19;20357;-77
2023/04/26 03:10:38;;;;;;;12.18;6.28;;;;;;;;;;7370810;19;20348;-77
2023/04/26 03:13:03;;;;;;;14.88;6.22;;;;;;;;;;7374507;19;20010;-76
2023/04/26 03:15:28;;;;;;;16.55;6.70;;;;;;;;;;7364129;19;20645;-77
2023/04/26 03:17:54;;;;;;;12.20;6.10;;;;;;;;;;7372273;19;19999;-77
2023/04/26 03:20:19;;;;;;;12.25;6.45;;;;;;;;;;7363519;19;20807;-77
2023/04/26 03:22:45;;;;;;;14.50;6.88;;;;;;;;;;7372091;19;20086;-77
2023/04/26 03:25:10;;;;;;;13.77;6.53;;;;;;;;;;7368417;19;20083;-78
2023/04/26 03:27:35;;;;;;;14.13;6.40;;;;;;;;;;7369800;19;20377;-77
2023/04/26 03:30:00;;;;;;;13.90;7.43;;;;;;;;;;7364635;19;20260;-78
2023/04/26 03:32:26;;;;;;;19.83;8.32;;;;;;;;;;7366656;19;20006;-77
2023/04/26 03:34:51;;;;;;;18.15;7.60;;;;;;;;;;7368227;19;19990;-77
2023/04/26 03:37:16;;;;;;;14.23;6.85;;;;;;;;;;7367793;19;20011;-77
2023/04/26 03:39:41;;;;;;;15.75;7.22;;;;;;;;;;7367216;19;20235;-77
2023/04/26 03:42:07;;;;;;;21.98;8.23;;;;;;;;;;7368159;19;19990;-78
2023/04/26 03:44:32;;;;;;;16.45;8.20;;;;;;;;;;7362273;19;20074;-77
2023/04/26 03:46:57;;;;;;;17.85;7.35;;;;;;;;;;7358539;19;20091;-78
2023/04/26 03:49:22;;;;;;;14.38;7.22;;;;;;;;;;7346583;19;19998;-77
2023/04/26 03:51:47;;;;;;;16.92;7.47;;;;;;;;;;7351443;19;19995;-77
2023/04/26 03:54:13;;;;;;;16.10;7.55;;;;;;;;;;7361553;19;20219;-77
2023/04/26 03:56:38;;;;;;;14.00;6.70;;;;;;;;;;7350626;19;19998;-77
2023/04/26 03:59:04;;;;;;;13.57;6.70;;;;;;;;;;7358638;19;19995;-77
2023/04/26 04:01:29;;;;;;;13.15;7.43;;;;;;;;;;7355000;19;19998;-76
2023/04/26 04:03:54;;;;;;;13.15;7.25;;;;;;;;;;7367105;19;20002;-76
2023/04/26 04:06:20;;;;;;;18.52;7.68;;;;;;;;;;7353251;19;20805;-77
2023/04/26 04:08:45;;;;;;;14.20;6.95;;;;;;;;;;7353350;19;20349;-77
2023/04/26 04:11:10;;;;;;;17.13;7.87;;;;;;;;;;7359448;19;19998;-76
2023/04/26 04:13:36;;;;;;;15.82;6.90;;;;;;;;;;7364876;19;20251;-77
2023/04/26 04:16:01;;;;;;;13.37;7.47;;;;;;;;;;7364432;19;20236;-78
2023/04/26 04:18:26;;;;;;;20.05;8.75;;;;;;;;;;7366277;19;20238;-77
2023/04/26 04:20:51;;;;;;;19.70;8.18;;;;;;;;;;7365362;19;20003;-77
2023/04/26 04:23:16;;;;;;;15.52;8.32;;;;;;;;;;7364735;19;20013;-78
2023/04/26 04:25:42;;;;;;;16.10;8.10;;;;;;;;;;7368941;19;20737;-77
2023/04/26 04:28:08;;;;;;;13.00;7.72;;;;;;;;;;7369883;19;20013;-76
2023/04/26 04:30:33;;;;;;;14.88;7.90;;;;;;;;;;7359936;19;20002;-77
2023/04/26 04:32:58;;;;;;;14.27;7.38;;;;;;;;;;7365560;19;20527;-77
2023/04/26 04:35:27;;;;;;;14.73;7.45;;;;;;;;;;7359779;19;20242;-77
2023/04/26 04:37:53;;;;;;;12.82;8.20;;;;;;;;;;7369196;19;20030;-76
2023/04/26 04:40:18;;;;;;;15.35;8.45;;;;;;;;;;7365617;19;20002;-77
2023/04/26 04:42:43;;;;;;;15.98;8.90;;;;;;;;;;7369749;19;20070;-77
2023/04/26 04:45:09;;;;;;;13.30;7.95;;;;;;;;;;7363167;19;20029;-77
2023/04/26 04:47:36;;;;;;;18.80;8.40;;;;;;;;;;7367072;19;20007;-77
2023/04/26 04:50:02;;;;;;;15.45;8.68;;;;;;;;;;7362759;19;20003;-77
2023/04/26 04:52:27;;;;;;;17.05;8.75;;;;;;;;;;7368559;19;20054;-77
2023/04/26 04:54:52;;;;;;;16.15;8.80;;;;;;;;;;7377037;19;20014;-77
2023/04/26 04:57:17;;;;;;;15.35;8.98;;;;;;;;;;7372880;19;19995;-77
2023/04/26 04:59:42;;;;;;;16.90;8.40;;;;;;;;;;7358866;19;20001;-77
2023/04/26 05:02:08;;;;;;;23.90;9.00;;;;;;;;;;7374915;19;20451;-77
2023/04/26 05:04:33;;;;;;;16.63;8.77;;;;;;;;;;7366454;19;19999;-77
2023/04/26 05:06:58;;;;;;;14.07;7.75;;;;;;;;;;7373946;19;20843;-77
2023/04/26 05:09:24;;;;;;;15.07;7.63;;;;;;;;;;7372596;19;20013;-77
2023/04/26 05:11:49;;;;;;;15.30;7.43;;;;;;;;;;7365538;19;20009;-76
2023/04/26 05:14:14;;;;;;;16.70;7.68;;;;;;;;;;7371382;19;20955;-76
2023/04/26 05:16:40;;;;;;;18.08;8.10;;;;;;;;;;7370514;19;20074;-77
2023/04/26 05:19:05;;;;;;;16.27;7.35;;;;;;;;;;7376985;19;20223;-76
2023/04/26 05:21:31;;;;;;;13.27;7.68;;;;;;;;;;7367477;19;20011;-76
2023/04/26 05:23:56;;;;;;;15.68;7.68;;;;;;;;;;7373116;19;20019;-77
2023/04/26 05:26:21;;;;;;;14.10;7.20;;;;;;;;;;7368309;19;20022;-79
2023/04/26 05:28:46;;;;;;;16.25;7.38;;;;;;;;;;7358505;19;20735;-79
2023/04/26 05:31:11;;;;;;;16.70;8.37;;;;;;;;;;7367363;19;19999;-78
2023/04/26 05:33:37;;;;;;;17.88;8.93;;;;;;;;;;7371778;19;20231;-78
2023/04/26 05:36:03;;;;;;;17.05;7.63;;;;;;;;;;7367461;19;20006;-79
2023/04/26 05:38:28;;;;;;;15.13;7.63;;;;;;;;;;7370227;19;20002;-79
2023/04/26 05:40:54;;;;;;;18.23;7.65;;;;;;;;;;7374672;19;19999;-78
2023/04/26 05:43:19;;;;;;;15.70;7.30;;;;;;;;;;7374888;19;20001;-78
2023/04/26 05:45:56;;;;;;;13.30;7.72;;;;;;;;;;7364178;19;20255;-78
2023/04/26 05:48:22;;;;;;;13.23;7.82;;;;;;;;;;7377024;19;20231;-77
2023/04/26 05:50:47;;;;;;;17.08;8.05;;;;;;;;;;7361914;19;20085;-78
2023/04/26 05:53:13;;;;;;;16.02;7.80;;;;;;;;;;7371143;19;20010;-78
2023/04/26 05:55:40;;;;;;;14.98;8.10;;;;;;;;;;7362902;19;20026;-77
2023/04/26 05:58:05;;;;;;;15.77;8.38;;;;;;;;;;7367183;19;20078;-78
2023/04/26 06:00:31;;;;;;;19.23;9.15;;;;;;;;;;7361712;19;20067;-77
2023/04/26 06:02:56;;;;;;;18.20;9.32;;;;;;;;;;7366026;19;20022;-77
2023/04/26 06:05:22;;;;;;;21.08;11.13;;;;;;;;;;7366167;19;19991;-77
2023/04/26 06:07:47;;;;;;;19.30;10.90;;;;;;;;;;7371819;19;20036;-77
2023/04/26 06:10:12;;;;;;;18.27;9.32;;;;;;;;;;7372148;19;20070;-76
2023/04/26 06:12:38;;;;;;;15.35;8.48;;;;;;;;;;7373756;19;20894;-78
2023/04/26 06:15:03;;;;;;;19.38;9.38;;;;;;;;;;7364151;19;20669;-79
2023/04/26 06:17:28;;;;;;;18.35;9.02;;;;;;;;;;7371314;19;19998;-77
2023/04/26 06:19:53;;;;;;;20.48;10.30;;;;;;;;;;7367416;19;19998;-77
2023/04/26 06:22:18;;;;;;;17.52;9.75;;;;;;;;;;7372679;19;20246;-77
2023/04/26 06:24:43;;;;;;;14.10;8.37;;;;;;;;;;7365833;19;20002;-77
2023/04/26 06:27:09;;;;;;;16.10;9.10;;;;;;;;;;7373218;19;20244;-80
2023/04/26 06:29:34;;;;;;;19.85;8.43;;;;;;;;;;7365781;19;20247;-78
2023/04/26 06:31:59;;;;;;;15.18;8.95;;;;;;;;;;7371346;19;20230;-78
2023/04/26 06:34:24;;;;;;;14.45;7.57;;;;;;;;;;7367541;19;19998;-78
2023/04/26 06:36:49;;;;;;;15.20;8.63;;;;;;;;;;7365576;19;20468;-79
2023/04/26 06:39:16;;;;;;;18.45;8.75;;;;;;;;;;7372222;19;20216;-78
2023/04/26 06:41:41;;;;;;;15.52;9.02;;;;;;;;;;7370386;19;20595;-77
2023/04/26 06:44:06;;;;;;;17.40;9.38;;;;;;;;;;7367775;19;20002;-78
2023/04/26 06:46:31;;;;;;;18.60;8.90;;;;;;;;;;7368328;19;20003;-79
2023/04/26 06:48:56;;;;;;;20.08;9.48;;;;;;;;;;7373081;19;20223;-78
2023/04/26 06:51:22;;;;;;;21.50;9.75;;;;;;;;;;7365300;19;20002;-78
2023/04/26 06:53:47;;;;;;;17.70;9.73;;;;;;;;;;7366385;19;20666;-77
2023/04/26 06:56:12;;;;;;;20.80;9.27;;;;;;;;;;7372569;19;19999;-78
2023/04/26 06:58:37;;;;;;;23.75;10.20;;;;;;;;;;7364889;19;20014;-78
2023/04/26 07:01:04;;;;;;;17.85;9.25;;;;;;;;;;7365023;19;20021;-79
2023/04/26 07:03:29;;;;;;;18.48;8.70;;;;;;;;;;7369981;19;20260;-79
2023/04/26 07:05:55;;;;;;;18.23;9.25;;;;;;;;;;7361430;19;20449;-81
2023/04/26 07:08:20;;;;;;;24.08;9.60;;;;;;;;;;7371853;19;20010;-79
2023/04/26 07:10:46;;;;;;;17.07;8.87;;;;;;;;;;7369598;19;20062;-79
2023/04/26 07:13:11;;;;;;;18.58;8.52;;;;;;;;;;7368535;19;20242;-79
2023/04/26 07:15:36;;;;;;;17.23;9.57;;;;;;;;;;7363221;19;20003;-77
2023/04/26 07:18:01;;;;;;;19.38;9.98;;;;;;;;;;7372216;19;20227;-79
2023/04/26 07:20:26;;;;;;;21.40;10.55;;;;;;;;;;7365565;19;20006;-80
2023/04/26 07:22:52;;;;;;;22.87;9.27;;;;;;;;;;7368148;19;20342;-77
2023/04/26 07:25:17;;;;;;;23.83;9.68;;;;;;;;;;7370255;19;20581;-78
2023/04/26 07:27:42;;;;;;;20.65;10.18;;;;;;;;;;7367634;19;20010;-80
2023/04/26 07:30:09;;;;;;;21.92;9.73;;;;;;;;;;7366483;19;20002;-78
2023/04/26 07:32:35;;;;;;;19.17;8.98;;;;;;;;;;7369355;19;19994;-78
2023/04/26 07:35:00;;;;;;;23.35;9.15;;;;;;;;;;7367929;19;20009;-78
2023/04/26 07:37:25;;;;;;;18.95;8.07;;;;;;;;;;7366505;19;20475;-78
2023/04/26 07:39:50;;;;;;;22.50;8.63;;;;;;;;;;7369160;19;19998;-79
2023/04/26 07:42:15;;;;;;;16.08;7.45;;;;;;;;;;7371091;19;20828;-80
2023/04/26 07:44:41;;;;;;;16.40;7.97;;;;;;;;;;7358304;19;19999;-78
2023/04/26 07:47:13;;;;;;;19.45;8.60;;;;;;;;;;7368192;19;20018;-77
2023/04/26 07:49:38;;;;;;;20.98;8.85;;;;;;;;;;7358244;19;21013;-81
2023/04/26 07:52:03;;;;;;;20.60;9.13;;;;;;;;;;7366674;19;20022;-79
2023/04/26 07:54:28;;;;;;;20.00;8.93;;;;;;;;;;7364064;19;20733;-79
2023/04/26 07:56:54;;;;;;;20.03;8.60;;;;;;;;;;7357559;19;20235;-81
2023/04/26 07:59:19;;;;;;;17.88;7.95;;;;;;;;;;7354331;19;21075;-77
2023/04/26 08:01:44;;;;;;;18.38;8.10;;;;;;;;;;7365764;19;20075;-78
2023/04/26 08:04:09;;;;;;;15.93;6.95;;;;;;;;;;7363069;19;20483;-81
2023/04/26 08:06:36;;;;;;;18.02;8.35;;;;;;;;;;7362626;19;19995;-81
2023/04/26 08:09:02;;;;;;;20.90;8.82;;;;;;;;;;7368018;19;20010;-80
2023/04/26 08:11:27;;;;;;;20.70;8.18;;;;;;;;;;7370054;19;20006;-83
2023/04/26 08:13:52;;;;;;;18.20;7.70;;;;;;;;;;7367975;19;20006;-79
2023/04/26 08:16:17;;;;;;;16.40;8.00;;;;;;;;;;7365457;19;20555;-79
2023/04/26 08:18:43;;;;;;;16.63;7.53;;;;;;;;;;7368569;19;19997;-78
2023/04/26 08:21:08;;;;;;;17.02;6.95;;;;;;;;;;7364363;19;20018;-80
2023/04/26 08:23:36;;;;;;;18.80;7.43;;;;;;;;;;7366090;19;21037;-77
2023/04/26 08:26:01;;;;;;;18.30;7.55;;;;;;;;;;7369351;19;20259;-78
2023/04/26 08:28:27;;;;;;;14.10;6.13;;;;;;;;;;7377638;19;20002;-78
2023/04/26 08:30:52;;;;;;;16.77;6.23;;;;;;;;;;7367948;19;20006;-77
2023/04/26 08:33:17;;;;;;;16.58;6.93;;;;;;;;;;7379063;19;20785;-79
2023/04/26 08:35:43;;;;;;;16.35;6.55;;;;;;;;;;7369706;19;19998;-78
2023/04/26 08:38:08;;;;;;;19.90;7.20;;;;;;;;;;7371640;19;20333;-81
2023/04/26 08:40:35;;;;;;;17.63;6.47;;;;;;;;;;7363487;19;19999;-82
2023/04/26 08:43:00;;;;;;;14.35;5.65;;;;;;;;;;7374005;19;19995;-78
2023/04/26 08:45:25;;;;;;;12.93;5.53;;;;;;;;;;7371650;19;20022;-77
2023/04/26 08:47:52;;;;;;;15.97;5.60;;;;;;;;;;7375037;19;20257;-78
2023/04/26 08:50:21;;;;;;;15.30;6.20;;;;;;;;;;7355214;19;20809;-78
2023/04/26 08:52:47;;;;;;;14.25;5.78;;;;;;;;;;7367157;19;20385;-78
2023/04/26 08:55:14;;;;;;;15.10;5.78;;;;;;;;;;7378542;19;20074;-77
2023/04/26 08:57:41;;;;;;;15.45;6.20;;;;;;;;;;7375101;19;19995;-79
2023/04/26 09:00:12;;;;;;;13.00;5.68;;;;;;;;;;7372075;19;20108;-77
2023/04/26 09:02:40;;;;;;;14.27;5.90;;;;;;;;;;7373109;19;20074;-78
2023/04/26 09:05:05;;;;;;;13.48;5.95;;;;;;;;;;7371456;19;20003;-78
2023/04/26 09:07:32;;;;;;;16.45;6.70;;;;;;;;;;7368281;19;20663;-78
2023/04/26 09:09:58;;;;;;;18.58;6.80;;;;;;;;;;7362658;19;20022;-79
2023/04/26 09:12:24;;;;;;;14.40;5.40;;;;;;;;;;7374771;19;20026;-77
2023/04/26 09:14:49;;;;;;;15.38;6.45;;;;;;;;;;7364097;19;20866;-81
2023/04/26 09:17:27;;;;;;;15.13;5.80;;;;;;;;;;7374647;19;20002;-78
2023/04/26 09:19:52;;;;;;;13.65;5.68;;;;;;;;;;7366545;19;20760;-77
2023/04/26 09:22:28;;;;;;;17.63;5.20;;;;;;;;;;7367881;19;20035;-79
2023/04/26 09:24:53;;;;;;;13.88;5.75;;;;;;;;;;7372157;19;20416;-77
2023/04/26 09:27:18;;;;;;;15.88;4.53;;;;;;;;;;7371590;19;20019;-77
2023/04/26 09:29:57;;;;;;;15.25;4.97;;;;;;;;;;7366631;19;20070;-80
2023/04/26 09:32:23;;;;;;;13.23;5.80;;;;;;;;;;7375172;19;20010;-77
2023/04/26 09:34:48;;;;;;;12.88;4.95;;;;;;;;;;7364052;19;20594;-81
2023/04/26 09:37:14;;;;;;;14.75;4.68;;;;;;;;;;7372020;19;20089;-79
2023/04/26 09:39:40;;;;;;;15.90;5.07;;;;;;;;;;7369232;19;20373;-77
2023/04/26 09:42:06;;;;;;;16.23;5.40;;;;;;;;;;7375584;19;20240;-78
2023/04/26 09:44:31;;;;;;;16.15;5.70;;;;;;;;;;7367498;19;20550;-81
2023/04/26 09:47:08;;;;;;;12.93;4.13;;;;;;;;;;7367037;19;20768;-81
2023/04/26 09:49:43;;;;;;;11.57;4.35;;;;;;;;;;7347393;19;20523;-78
2023/04/26 09:52:08;;;;;;;11.10;4.25;;;;;;;;;;7370807;19;20002;-81
2023/04/26 09:54:37;;;;;;;7.53;2.57;;;;;;;;;;7365579;19;20013;-78
2023/04/26 09:57:02;;;;;;;9.63;3.05;;;;;;;;;;7373493;19;20007;-78
2023/04/26 09:59:37;;;;;;;6.97;3.13;;;;;;;;;;7370245;19;20014;-80
2023/04/26 10:02:03;;;;;;;6.47;2.25;;;;;;;;;;7369912;19;20380;-79
2023/04/26 10:04:28;;;;;;;10.23;2.42;;;;;;;;;;7366939;19;19998;-82
2023/04/26 10:06:54;;;;;;;6.60;2.40;;;;;;;;;;7347363;19;20009;-79
2023/04/26 10:09:19;;;;;;;10.07;3.20;;;;;;;;;;7370846;19;20356;-80
2023/04/26 10:11:44;;;;;;;10.57;2.90;;;;;;;;;;7363298;19;20050;-80
2023/04/26 10:14:09;;;;;;;9.87;3.80;;;;;;;;;;7352325;19;20003;-81
2023/04/26 10:16:36;;;;;;;11.27;3.67;;;;;;;;;;7358480;19;20260;-80
2023/04/26 10:19:02;;;;;;;11.55;4.03;;;;;;;;;;7373691;19;20484;-79
2023/04/26 10:21:30;;;;;;;8.50;3.15;;;;;;;;;;7364117;19;20102;-77
2023/04/26 10:23:56;;;;;;;12.88;3.78;;;;;;;;;;7366280;19;20010;-81
2023/04/26 10:26:40;;;;;;;9.05;3.28;;;;;;;;;;7374475;19;20002;-78
2023/04/26 10:29:06;;;;;;;9.60;3.60;;;;;;;;;;7367098;19;20494;-81
2023/04/26 10:31:50;;;;;;;11.43;4.22;;;;;;;;;;7368744;19;20020;-80
2023/04/26 10:34:21;;;;;;;12.02;4.57;;;;;;;;;;7372726;19;20122;-83
2023/04/26 10:37:05;;;;;;;9.57;3.53;;;;;;;;;;7365668;19;20320;-78
2023/04/26 10:39:31;;;;;;;12.13;3.63;;;;;;;;;;7364366;19;19995;-79
2023/04/26 10:42:17;;;;;;;8.77;4.00;;;;;;;;;;7369512;19;20006;-77
2023/04/26 10:44:44;;;;;;;11.35;3.28;;;;;;;;;;7359654;19;20236;-78
2023/04/26 10:47:26;;;;;;;10.27;3.85;;;;;;;;;;7362661;19;20614;-77
2023/04/26 10:49:52;;;;;;;11.55;4.38;;;;;;;;;;7361959;19;20693;-76
2023/04/26 10:52:19;;;;;;;11.30;4.00;;;;;;;;;;7361327;19;20293;-80
2023/04/26 10:54:44;;;;;;;8.98;3.47;;;;;;;;;;7370766;19;19990;-81
2023/04/26 10:57:09;;;;;;;10.07;3.60;;;;;;;;;;7368873;19;20018;-79
2023/04/26 10:59:34;;;;;;;9.02;3.28;;;;;;;;;;7365614;19;20009;-81
2023/04/26 11:02:00;;;;;;;9.80;3.60;;;;;;;;;;7366860;19;20006;-77
2023/04/26 11:04:45;;;;;;;8.85;3.03;;;;;;;;;;7361749;19;20231;-81
2023/04/26 11:07:12;;;;;;;10.95;3.28;;;;;;;;;;7368450;19;20464;-78
2023/04/26 11:09:38;;;;;;;15.10;4.45;;;;;;;;;;7365657;19;20006;-77
2023/04/26 11:12:10;;;;;;;11.88;3.85;;;;;;;;;;7368818;19;20356;-79
2023/04/26 11:14:35;;;;;;;10.85;3.80;;;;;;;;;;7361482;19;20005;-81
2023/04/26 11:17:19;;;;;;;9.82;4.00;;;;;;;;;;7366463;19;19994;-79
2023/04/26 11:19:45;;;;;;;9.77;3.63;;;;;;;;;;7366619;19;20259;-80
2023/04/26 11:22:11;;;;;;;8.50;3.53;;;;;;;;;;7370940;19;20420;-79
2023/04/26 11:24:37;;;;;;;9.48;3.63;;;;;;;;;;7364113;19;20074;-80
2023/04/26 11:27:09;;;;;;;8.82;3.35;;;;;;;;;;7367925;19;19999;-79
2023/04/26 11:29:34;;;;;;;11.68;3.50;;;;;;;;;;7365835;19;20010;-81
2023/04/26 11:31:59;;;;;;;8.45;3.40;;;;;;;;;;7370281;19;20330;-78
2023/04/26 11:34:32;;;;;;;9.23;3.75;;;;;;;;;;7362135;19;20007;-83
2023/04/26 11:36:57;;;;;;;12.60;3.65;;;;;;;;;;7368023;19;20026;-80
2023/04/26 11:39:22;;;;;;;7.83;3.07;;;;;;;;;;7369269;19;19998;-82
2023/04/26 11:41:47;;;;;;;13.43;3.80;;;;;;;;;;7363951;19;20257;-81
2023/04/26 11:44:16;;;;;;;9.27;3.55;;;;;;;;;;7363658;19;20247;-81
2023/04/26 11:46:42;;;;;;;11.02;3.50;;;;;;;;;;7365211;19;20495;-83
2023/04/26 11:49:07;;;;;;;7.63;3.25;;;;;;;;;;7370833;19;20023;-79
2023/04/26 11:51:32;;;;;;;12.25;3.53;;;;;;;;;;7360655;19;20829;-80
2023/04/26 11:54:00;;;;;;;10.27;3.57;;;;;;;;;;7368604;19;20314;-80
2023/04/26 11:56:25;;;;;;;13.48;3.90;;;;;;;;;;7369403;19;20041;-80
2023/04/26 11:58:51;;;;;;;8.88;3.30;;;;;;;;;;7360557;19;19995;-78
2023/04/26 12:01:24;;;;;;;8.00;3.30;;;;;;;;;;7358476;19;20009;-82
2023/04/26 12:03:56;;;;;;;9.02;3.55;;;;;;;;;;7354852;19;20007;-82
2023/04/26 12:06:40;;;;;;;7.75;2.75;;;;;;;;;;7359879;19;19999;-77
2023/04/26 12:09:05;;;;;;;9.00;3.38;;;;;;;;;;7366421;19;20455;-77
2023/04/26 12:11:30;;;;;;;9.52;3.10;;;;;;;;;;7365241;19;20013;-78
2023/04/26 12:13:59;;;;;;;11.43;3.70;;;;;;;;;;7364661;19;20009;-81
2023/04/26 12:16:24;;;;;;;9.48;3.70;;;;;;;;;;7362390;19;20044;-77
2023/04/26 12:18:50;;;;;;;11.98;3.80;;;;;;;;;;7367915;19;20003;-80
2023/04/26 12:21:16;;;;;;;8.88;3.50;;;;;;;;;;7363131;19;20003;-77
2023/04/26 12:23:41;;;;;;;8.80;3.60;;;;;;;;;;7363468;19;20025;-82
2023/04/26 12:26:09;;;;;;;13.05;3.67;;;;;;;;;;7367773;19;20002;-80
2023/04/26 12:28:34;;;;;;;12.93;4.00;;;;;;;;;;7368855;19;20010;-79
2023/04/26 12:31:02;;;;;;;9.37;3.33;;;;;;;;;;7358938;19;20357;-78
2023/04/26 12:33:27;;;;;;;9.88;3.08;;;;;;;;;;7361907;19;20003;-78
2023/04/26 12:35:52;;;;;;;10.67;3.33;;;;;;;;;;7358340;19;20014;-80
2023/04/26 12:38:18;;;;;;;10.40;3.63;;;;;;;;;;7360125;19;20979;-80
2023/04/26 12:40:43;;;;;;;9.40;3.13;;;;;;;;;;7368025;19;20247;-81
2023/04/26 12:43:08;;;;;;;13.68;4.15;;;;;;;;;;7359672;19;20062;-81
2023/04/26 12:45:34;;;;;;;7.88;3.25;;;;;;;;;;7360082;19;19999;-79
2023/04/26 12:47:59;;;;;;;10.48;3.20;;;;;;;;;;7358198;19;20046;-79
2023/04/26 12:50:24;;;;;;;9.55;3.97;;;;;;;;;;7361522;19;20396;-78
2023/04/26 12:52:49;;;;;;;8.60;2.92;;;;;;;;;;7365750;19;19994;-80
2023/04/26 12:55:15;;;;;;;7.97;2.85;;;;;;;;;;7370273;19;20018;-79
2023/04/26 12:57:41;;;;;;;8.32;3.20;;;;;;;;;;7365790;19;20013;-79
2023/04/26 13:00:10;;;;;;;9.82;3.38;;;;;;;;;;7361844;19;20001;-81
2023/04/26 13:02:35;;;;;;;9.32;3.13;;;;;;;;;;7368066;19;20007;-78
2023/04/26 13:05:03;;;;;;;14.47;3.40;;;;;;;;;;7360450;19;20378;-79
2023/04/26 13:07:28;;;;;;;10.82;3.30;;;;;;;;;;7365802;19;20031;-78
2023/04/26 13:09:54;;;;;;;6.70;2.97;;;;;;;;;;7364473;19;20007;-79
2023/04/26 13:12:19;;;;;;;10.82;3.65;;;;;;;;;;7372740;19;20030;-80
2023/04/26 13:14:45;;;;;;;8.73;3.20;;;;;;;;;;7368089;19;20007;-80
2023/04/26 13:17:11;;;;;;;10.30;3.17;;;;;;;;;;7376361;19;20771;-78
2023/04/26 13:19:36;;;;;;;11.07;2.90;;;;;;;;;;7372636;19;20026;-78
2023/04/26 13:22:03;;;;;;;7.90;3.10;;;;;;;;;;7373143;19;20325;-78
2023/04/26 13:24:28;;;;;;;12.75;3.10;;;;;;;;;;7363319;19;20003;-78
2023/04/26 13:26:53;;;;;;;10.93;3.20;;;;;;;;;;7365289;19;20095;-77
2023/04/26 13:29:18;;;;;;;9.23;3.07;;;;;;;;;;7359569;19;20837;-78
2023/04/26 13:31:43;;;;;;;9.90;3.20;;;;;;;;;;7366310;19;20009;-79
2023/04/26 13:34:09;;;;;;;9.17;3.10;;;;;;;;;;7369073;19;20490;-81
2023/04/26 13:36:34;;;;;;;10.15;3.50;;;;;;;;;;7365201;19;19994;-79
2023/04/26 13:38:59;;;;;;;9.00;3.23;;;;;;;;;;7370612;19;20462;-78
2023/04/26 13:41:24;;;;;;;10.80;3.23;;;;;;;;;;7372961;19;20280;-82
2023/04/26 13:43:50;;;;;;;10.48;3.25;;;;;;;;;;7369379;19;20252;-79
2023/04/26 13:46:15;;;;;;;11.93;3.17;;;;;;;;;;7367194;19;20796;-79
2023/04/26 13:48:40;;;;;;;8.40;2.87;;;;;;;;;;7372125;19;20020;-80
2023/04/26 13:51:05;;;;;;;10.30;2.97;;;;;;;;;;7357726;19;19994;-77
2023/04/26 13:53:31;;;;;;;9.35;3.00;;;;;;;;;;7371131;19;19998;-78
2023/04/26 13:55:56;;;;;;;9.50;3.33;;;;;;;;;;7367647;19;20015;-78
2023/04/26 13:58:21;;;;;;;9.85;3.60;;;;;;;;;;7374964;19;20002;-76
2023/04/26 14:00:46;;;;;;;9.10;2.90;;;;;;;;;;7365595;19;19998;-78
2023/04/26 14:03:11;;;;;;;8.98;2.97;;;;;;;;;;7363587;19;20632;-78
2023/04/26 14:05:37;;;;;;;6.63;2.53;;;;;;;;;;7365048;19;20022;-80
2023/04/26 14:08:02;;;;;;;7.10;3.05;;;;;;;;;;7368734;19;20014;-78
2023/04/26 14:10:27;;;;;;;8.17;3.10;;;;;;;;;;7370563;19;19995;-80
2023/04/26 14:12:53;;;;;;;8.40;2.70;;;;;;;;;;7363174;19;20216;-78
2023/04/26 14:15:18;;;;;;;10.95;3.50;;;;;;;;;;7354802;19;20304;-78
2023/04/26 14:17:45;;;;;;;8.67;3.03;;;;;;;;;;7374390;19;20006;-78
2023/04/26 14:20:11;;;;;;;8.65;2.90;;;;;;;;;;7362613;19;20243;-81
2023/04/26 14:22:36;;;;;;;7.95;3.00;;;;;;;;;;7373662;19;20007;-78
2023/04/26 14:25:02;;;;;;;8.70;3.00;;;;;;;;;;7363187;19;20392;-80